Time;durP1;ratioP1;P1;durP2;ratioP2;P2;SDS_P1;SDS_P2;PMS_P1;PMS_P2;Temp;Humidity;BMP_temperature;BMP_pressure;BME280_temperature;BME280_humidity;BME280_pressure;Samples;Min_cycle;Max_cycle;Signal;HPM_P1;HPM_P2
2023/12/29 00:01:43;;;;;;;10.50;3.70;;;5.90;99.90;;;;;;10544335;28;20255;-78
2023/12/29 00:07:04;;;;;;;7.20;3.43;;;5.80;99.90;;;;;;10524174;28;20499;-78
2023/12/29 00:12:25;;;;;;;7.43;3.43;;;5.80;1.00;;;;;;10524074;28;20197;-78
2023/12/29 00:17:46;;;;;;;8.17;3.33;;;5.70;99.90;;;;;;10524162;28;20225;-77
2023/12/29 00:23:07;;;;;;;8.63;3.40;;;5.70;1.00;;;;;;10524791;28;20359;-78
2023/12/29 00:28:28;;;;;;;5.60;3.50;;;5.60;1.00;;;;;;10524526;28;20407;-81
2023/12/29 00:33:52;;;;;;;9.30;3.33;;;5.60;1.00;;;;;;10485592;28;20229;-77
2023/12/29 00:39:13;;;;;;;6.63;3.50;;;5.50;1.00;;;;;;10482913;28;20268;-79
2023/12/29 00:44:35;;;;;;;5.13;2.83;;;5.40;99.90;;;;;;10481412;28;20213;-79
2023/12/29 00:49:56;;;;;;;8.77;2.90;;;5.40;1.00;;;;;;10482434;28;20191;-79
2023/12/29 00:55:17;;;;;;;6.13;3.30;;;5.40;1.00;;;;;;10502146;28;20244;-78
2023/12/29 01:00:38;;;;;;;10.03;3.63;;;5.40;1.00;;;;;;10521439;28;20196;-78
2023/12/29 01:06:00;;;;;;;8.47;3.13;;;5.40;1.00;;;;;;10503944;28;20193;-79
2023/12/29 01:11:21;;;;;;;6.77;3.03;;;5.50;99.90;;;;;;10522850;28;20374;-77
2023/12/29 01:16:42;;;;;;;5.07;2.90;;;5.30;1.00;;;;;;10506293;28;20236;-77
2023/12/29 01:22:03;;;;;;;4.37;2.80;;;5.20;1.00;;;;;;10521520;28;20198;-77
2023/12/29 01:27:25;;;;;;;5.50;3.13;;;5.30;1.00;;;;;;10506830;28;20201;-78
2023/12/29 01:32:46;;;;;;;5.40;3.67;;;5.30;1.00;;;;;;10519686;28;20201;-78
2023/12/29 01:38:08;;;;;;;6.47;3.23;;;5.30;1.00;;;;;;10521917;28;20189;-77
2023/12/29 01:43:29;;;;;;;8.87;3.20;;;5.30;1.00;;;;;;10520577;28;20189;-77
2023/12/29 01:48:52;;;;;;;4.50;3.00;;;5.20;1.00;;;;;;10521337;28;20224;-79
2023/12/29 01:54:13;;;;;;;4.97;3.03;;;5.20;1.00;;;;;;10519798;28;20271;-78
2023/12/29 01:59:35;;;;;;;4.63;2.83;;;5.20;1.00;;;;;;10501694;28;20189;-77
2023/12/29 02:04:58;;;;;;;6.63;3.40;;;5.20;1.00;;;;;;10510337;28;20201;-78
2023/12/29 02:10:19;;;;;;;5.33;3.17;;;5.30;1.00;;;;;;10505248;28;20394;-78
2023/12/29 02:15:41;;;;;;;4.20;2.53;;;5.20;1.00;;;;;;10520254;28;20225;-78
2023/12/29 02:21:02;;;;;;;6.27;3.23;;;5.20;1.00;;;;;;10515708;28;20210;-77
2023/12/29 02:26:29;;;;;;;7.10;2.73;;;5.20;1.00;;;;;;10519139;28;20191;-79
2023/12/29 02:31:54;;;;;;;9.00;3.37;;;5.40;99.80;;;;;;10506170;28;20270;-77
2023/12/29 02:37:16;;;;;;;8.47;2.93;;;5.30;1.00;;;;;;10518983;28;20220;-77
2023/12/29 02:42:38;;;;;;;5.73;2.90;;;5.30;1.00;;;;;;10518951;28;20187;-79
2023/12/29 02:48:00;;;;;;;10.67;3.10;;;5.30;1.00;;;;;;10519862;28;20230;-78
2023/12/29 02:53:21;;;;;;;6.67;2.63;;;5.30;1.00;;;;;;10543120;28;20316;-78
2023/12/29 02:58:42;;;;;;;5.13;2.67;;;5.40;1.00;;;;;;10486584;28;20208;-77
2023/12/29 03:04:04;;;;;;;10.57;3.30;;;5.30;1.00;;;;;;10502861;28;20217;-78
2023/12/29 03:09:25;;;;;;;4.63;2.77;;;5.30;1.00;;;;;;10503664;28;20192;-77
2023/12/29 03:14:47;;;;;;;6.83;3.37;;;5.40;99.90;;;;;;10518100;28;20220;-79
2023/12/29 03:20:08;;;;;;;4.20;2.60;;;5.40;1.00;;;;;;10535239;28;20228;-79
2023/12/29 03:25:30;;;;;;;7.60;3.73;;;5.40;1.00;;;;;;10559913;28;20196;-77
2023/12/29 03:30:51;;;;;;;5.17;2.70;;;5.40;1.00;;;;;;10552677;28;20224;-77
2023/12/29 03:36:12;;;;;;;7.10;3.10;;;5.40;1.00;;;;;;10476068;28;20223;-77
2023/12/29 03:41:34;;;;;;;5.47;3.00;;;5.30;1.00;;;;;;10479704;28;20497;-78
2023/12/29 03:46:55;;;;;;;6.17;3.03;;;5.40;99.90;;;;;;10484940;28;20215;-77
2023/12/29 03:52:16;;;;;;;6.60;2.87;;;5.30;19.20;;;;;;10557785;28;20226;-76
2023/12/29 03:57:37;;;;;;;7.73;3.23;;;5.40;1.00;;;;;;10550596;28;20429;-79
2023/12/29 04:02:59;;;;;;;6.97;2.90;;;5.30;1.00;;;;;;10525566;28;20352;-77
2023/12/29 04:08:20;;;;;;;8.00;3.50;;;5.40;1.00;;;;;;10521034;28;20268;-80
2023/12/29 04:13:41;;;;;;;5.17;2.77;;;5.50;1.00;;;;;;10525074;28;20250;-77
2023/12/29 04:19:02;;;;;;;4.90;2.50;;;5.50;1.00;;;;;;10511280;28;20214;-80
2023/12/29 04:24:24;;;;;;;9.73;3.37;;;5.50;99.90;;;;;;10482510;28;20202;-78
2023/12/29 04:29:46;;;;;;;5.87;2.60;;;5.60;1.00;;;;;;10483181;28;20220;-77
2023/12/29 04:35:07;;;;;;;4.53;2.63;;;5.70;99.90;;;;;;10519962;28;20532;-77
2023/12/29 04:40:28;;;;;;;5.50;2.17;;;5.70;1.00;;;;;;10523436;28;20188;-81
2023/12/29 04:45:50;;;;;;;5.80;2.40;;;5.70;1.00;;;;;;10523183;28;20192;-81
2023/12/29 04:51:11;;;;;;;11.63;5.70;;;5.80;99.90;;;;;;10493452;28;20384;-79
2023/12/29 04:56:33;;;;;;;8.17;2.40;;;5.80;99.90;;;;;;10482109;28;20279;-78
2023/12/29 05:01:54;;;;;;;7.80;2.53;;;6.00;99.90;;;;;;10518706;28;20193;-78
2023/12/29 05:07:15;;;;;;;5.00;2.73;;;5.90;99.90;;;;;;10521932;28;20252;-78
2023/12/29 05:12:36;;;;;;;4.60;2.43;;;5.90;99.90;;;;;;10522834;28;20276;-79
2023/12/29 05:17:57;;;;;;;6.50;3.23;;;5.90;1.00;;;;;;10518402;28;20441;-79
2023/12/29 05:23:18;;;;;;;5.67;2.93;;;6.10;1.00;;;;;;10481048;28;20198;-80
2023/12/29 05:28:39;;;;;;;6.10;3.37;;;6.10;1.00;;;;;;10480175;28;20193;-78
2023/12/29 05:34:00;;;;;;;6.17;3.17;;;6.10;1.00;;;;;;10483948;28;20300;-83
2023/12/29 05:39:22;;;;;;;6.10;2.73;;;6.00;1.00;;;;;;10506802;28;20205;-78
2023/12/29 05:44:43;;;;;;;8.97;4.20;;;6.00;99.90;;;;;;10521778;28;20185;-81
2023/12/29 05:50:05;;;;;;;3.63;2.60;;;6.00;1.00;;;;;;10497288;28;20484;-80
2023/12/29 05:55:26;;;;;;;9.53;2.60;;;6.00;99.90;;;;;;10479678;28;20237;-78
2023/12/29 06:00:48;;;;;;;4.97;2.77;;;6.00;1.00;;;;;;10505644;28;20213;-77
2023/12/29 06:06:09;;;;;;;4.67;2.63;;;6.00;99.90;;;;;;10504693;28;20197;-81
2023/12/29 06:11:30;;;;;;;6.43;2.70;;;6.10;1.00;;;;;;10519516;28;20192;-78
2023/12/29 06:16:52;;;;;;;4.27;2.63;;;6.10;1.00;;;;;;10520195;28;20243;-78
2023/12/29 06:22:14;;;;;;;4.33;2.53;;;6.10;1.00;;;;;;10479768;28;20206;-78
2023/12/29 06:27:37;;;;;;;5.67;2.60;;;6.20;99.90;;;;;;10478598;28;20274;-81
2023/12/29 06:32:58;;;;;;;5.60;2.73;;;6.20;99.90;;;;;;10481932;28;20190;-78
2023/12/29 06:38:19;;;;;;;10.87;4.33;;;6.30;1.00;;;;;;10518707;28;20203;-79
2023/12/29 06:43:41;;;;;;;6.30;3.03;;;6.20;1.00;;;;;;10519542;28;20272;-78
2023/12/29 06:49:02;;;;;;;7.70;4.10;;;6.20;1.00;;;;;;10503107;28;20194;-81
2023/12/29 06:54:23;;;;;;;11.07;3.87;;;6.10;1.00;;;;;;10477574;28;20234;-81
2023/12/29 06:59:45;;;;;;;11.00;5.30;;;6.20;99.90;;;;;;10496169;28;20201;-82
2023/12/29 07:05:06;;;;;;;7.63;2.80;;;6.20;99.90;;;;;;10518947;28;20188;-81
2023/12/29 07:10:28;;;;;;;6.07;3.50;;;6.20;99.90;;;;;;10518763;28;20190;-78
2023/12/29 07:15:50;;;;;;;5.43;2.80;;;6.30;1.00;;;;;;10520438;28;20219;-79
2023/12/29 07:21:12;;;;;;;5.73;2.83;;;6.10;44.80;;;;;;10505207;28;20366;-79
2023/12/29 07:26:34;;;;;;;8.13;2.77;;;6.10;1.00;;;;;;10525911;28;20201;-79
2023/12/29 07:31:55;;;;;;;6.73;3.77;;;6.10;1.00;;;;;;10526580;28;20214;-81
2023/12/29 07:37:16;;;;;;;9.10;4.10;;;6.00;34.30;;;;;;10524813;28;20600;-80
2023/12/29 07:42:41;;;;;;;6.33;3.63;;;6.00;27.50;;;;;;10525138;28;20404;-79
2023/12/29 07:48:03;;;;;;;5.17;2.90;;;6.00;1.00;;;;;;10521697;28;20281;-78
2023/12/29 07:53:25;;;;;;;5.20;3.30;;;6.10;1.00;;;;;;10486849;28;20234;-81
2023/12/29 07:58:45;;;;;;;5.20;2.53;;;6.10;1.00;;;;;;10494259;28;20205;-81
2023/12/29 08:04:07;;;;;;;6.40;3.00;;;6.10;99.90;;;;;;10524933;28;20215;-78
2023/12/29 08:09:29;;;;;;;4.30;2.37;;;6.10;30.40;;;;;;10524254;28;20229;-80
2023/12/29 08:14:50;;;;;;;7.33;3.23;;;6.20;1.00;;;;;;10524502;28;20417;-78
2023/12/29 08:20:13;;;;;;;6.70;3.17;;;6.30;1.00;;;;;;10477336;28;20235;-78
2023/12/29 08:25:36;;;;;;;4.70;3.03;;;6.30;99.90;;;;;;10427201;28;20206;-77
2023/12/29 08:30:57;;;;;;;12.23;7.73;;;6.40;1.00;;;;;;10465267;28;20216;-79
2023/12/29 08:36:20;;;;;;;14.83;7.43;;;6.30;99.90;;;;;;10477267;28;20587;-78
2023/12/29 08:41:42;;;;;;;13.77;7.33;;;6.40;99.90;;;;;;10394397;28;20522;-79
2023/12/29 08:47:03;;;;;;;21.97;11.70;;;6.30;99.90;;;;;;10398909;28;20389;-78
2023/12/29 08:52:24;;;;;;;22.93;10.30;;;6.40;99.90;;;;;;10421572;28;20348;-81
2023/12/29 08:57:45;;;;;;;14.03;7.63;;;6.40;1.00;;;;;;10434463;28;20556;-78
2023/12/29 09:03:07;;;;;;;33.37;14.57;;;6.40;75.80;;;;;;10409230;28;20206;-82
2023/12/29 09:08:28;;;;;;;29.70;13.33;;;6.50;99.90;;;;;;10420784;28;20200;-78
2023/12/29 09:13:50;;;;;;;20.47;10.10;;;6.40;1.00;;;;;;10398008;28;20202;-78
2023/12/29 09:19:11;;;;;;;9.37;5.17;;;6.40;1.00;;;;;;10428108;28;20206;-79
2023/12/29 09:24:35;;;;;;;15.57;6.70;;;6.20;1.00;;;;;;10447298;28;20203;-81
2023/12/29 09:29:57;;;;;;;45.50;17.43;;;6.20;1.00;;;;;;10405968;28;20212;-81
2023/12/29 09:35:20;;;;;;;35.03;15.43;;;6.30;10.30;;;;;;10426886;28;20290;-82
2023/12/29 09:40:43;;;;;;;17.00;8.57;;;6.30;21.40;;;;;;10448341;28;20241;-77
2023/12/29 09:46:07;;;;;;;14.53;6.63;;;6.40;33.60;;;;;;10405661;28;20269;-81
2023/12/29 09:51:29;;;;;;;15.40;6.60;;;6.40;14.80;;;;;;10388709;28;20245;-81
2023/12/29 09:56:51;;;;;;;16.13;7.93;;;6.40;12.40;;;;;;10430649;28;20663;-80
2023/12/29 10:02:16;;;;;;;36.70;16.83;;;6.50;1.00;;;;;;10392263;28;20211;-77
2023/12/29 10:07:39;;;;;;;21.47;9.63;;;6.50;22.10;;;;;;10427041;28;20464;-78
2023/12/29 10:13:01;;;;;;;14.63;7.03;;;6.50;9.30;;;;;;10431506;28;20234;-77
2023/12/29 10:18:28;;;;;;;8.60;4.70;;;6.60;1.00;;;;;;10421869;28;20282;-79
2023/12/29 10:24:20;;;;;;;11.47;4.70;;;6.60;26.70;;;;;;10431599;28;20199;-81
2023/12/29 10:29:42;;;;;;;18.63;9.73;;;6.70;1.00;;;;;;10377139;28;20208;-78
2023/12/29 10:35:11;;;;;;;10.50;5.13;;;6.70;1.00;;;;;;10390468;28;20846;-80
2023/12/29 10:40:32;;;;;;;8.90;4.33;;;6.70;1.00;;;;;;10388656;28;20696;-80
2023/12/29 10:46:17;;;;;;;10.40;4.73;;;6.80;1.00;;;;;;10400474;28;20199;-83
2023/12/29 10:51:39;;;;;;;11.17;4.47;;;6.80;1.00;;;;;;10390123;28;20207;-80
2023/12/29 10:57:02;;;;;;;20.50;6.87;;;6.90;1.00;;;;;;10429562;28;20608;-79
2023/12/29 11:02:24;;;;;;;14.90;6.53;;;7.00;1.00;;;;;;10429976;28;20357;-78
2023/12/29 11:07:45;;;;;;;12.33;4.77;;;7.10;1.00;;;;;;10430188;28;20418;-79
2023/12/29 11:13:08;;;;;;;14.43;6.17;;;7.30;1.00;;;;;;10430826;28;20198;-78
2023/12/29 11:18:30;;;;;;;8.27;3.27;;;7.80;93.80;;;;;;10436018;28;20243;-78
2023/12/29 11:23:52;;;;;;;9.07;3.60;;;8.10;99.90;;;;;;10451135;28;20192;-80
2023/12/29 11:29:14;;;;;;;7.83;2.30;;;7.90;1.00;;;;;;10446599;28;20233;-80
2023/12/29 11:34:49;;;;;;;4.20;1.50;;;7.70;1.00;;;;;;10433730;28;20218;-80
2023/12/29 11:40:30;;;;;;;9.40;2.40;;;7.60;1.00;;;;;;10453510;28;20405;-79
2023/12/29 11:45:51;;;;;;;6.63;1.83;;;7.50;99.90;;;;;;10459818;28;20430;-80
2023/12/29 11:51:38;;;;;;;6.13;1.80;;;7.50;99.90;;;;;;10430042;28;20219;-79
2023/12/29 11:57:00;;;;;;;20.87;6.13;;;7.40;87.60;;;;;;10430517;28;20252;-84
2023/12/29 12:02:28;;;;;;;11.20;4.13;;;7.40;1.00;;;;;;10443314;28;20237;-79
2023/12/29 12:07:56;;;;;;;14.93;4.67;;;7.40;99.90;;;;;;10464622;28;20266;-79
2023/12/29 12:13:45;;;;;;;9.23;4.57;;;7.30;1.00;;;;;;10461190;28;20239;-77
2023/12/29 12:19:07;;;;;;;15.43;6.37;;;7.30;99.90;;;;;;10451245;28;20192;-79
2023/12/29 12:24:29;;;;;;;13.13;6.07;;;7.20;1.00;;;;;;10436219;28;20201;-77
2023/12/29 12:29:53;;;;;;;12.87;4.80;;;7.10;99.90;;;;;;10439941;28;20231;-78
2023/12/29 12:35:16;;;;;;;12.23;5.37;;;7.00;1.00;;;;;;10451734;28;20227;-78
2023/12/29 12:40:38;;;;;;;6.93;3.17;;;7.00;1.00;;;;;;10458946;28;20191;-79
2023/12/29 12:46:02;;;;;;;4.07;2.63;;;7.10;1.00;;;;;;10453421;28;20438;-77
2023/12/29 12:51:24;;;;;;;7.83;3.83;;;7.10;1.00;;;;;;10456300;28;20218;-79
2023/12/29 12:56:47;;;;;;;11.27;4.93;;;7.00;1.00;;;;;;10429004;28;20263;-78
2023/12/29 13:02:09;;;;;;;6.70;3.60;;;7.10;1.00;;;;;;10434141;28;20203;-78
2023/12/29 13:07:31;;;;;;;9.03;4.33;;;7.10;1.00;;;;;;10440334;28;20449;-79
2023/12/29 13:12:55;;;;;;;9.23;4.73;;;7.10;1.00;;;;;;10458065;28;20509;-78
2023/12/29 13:18:16;;;;;;;11.00;5.03;;;7.10;1.00;;;;;;10455310;28;20232;-78
2023/12/29 13:23:38;;;;;;;30.83;10.13;;;7.00;1.00;;;;;;10438558;28;20494;-80
2023/12/29 13:28:59;;;;;;;22.73;11.93;;;7.00;1.00;;;;;;10397181;28;20202;-79
2023/12/29 13:34:38;;;;;;;16.63;8.20;;;7.10;1.00;;;;;;10428168;28;20206;-79
2023/12/29 13:40:02;;;;;;;68.93;19.20;;;7.00;1.00;;;;;;10435232;28;20591;-79
2023/12/29 13:45:24;;;;;;;18.93;7.10;;;7.00;1.00;;;;;;10456453;28;20204;-78
2023/12/29 13:50:47;;;;;;;13.27;5.27;;;7.00;1.00;;;;;;10442622;28;20210;-78
2023/12/29 13:56:12;;;;;;;24.23;9.23;;;6.90;1.00;;;;;;10410098;28;20272;-80
2023/12/29 14:01:40;;;;;;;31.30;8.50;;;6.90;1.00;;;;;;10446171;28;20210;-82
2023/12/29 14:07:02;;;;;;;17.20;7.73;;;6.90;99.90;;;;;;10413506;28;20298;-79
2023/12/29 14:12:25;;;;;;;10.63;4.90;;;6.90;99.90;;;;;;10440573;28;20390;-79
2023/12/29 14:17:47;;;;;;;10.97;3.77;;;7.00;99.90;;;;;;10451521;28;20254;-81
2023/12/29 14:23:09;;;;;;;44.53;12.03;;;7.00;99.90;;;;;;10446142;28;20207;-79
2023/12/29 14:28:31;;;;;;;17.50;5.27;;;6.90;99.90;;;;;;10433466;28;20407;-81
2023/12/29 14:33:52;;;;;;;8.53;3.70;;;6.90;99.90;;;;;;10458682;28;20276;-79
2023/12/29 14:39:15;;;;;;;16.80;8.17;;;6.90;99.90;;;;;;10442006;28;20288;-81
2023/12/29 14:44:36;;;;;;;16.47;6.53;;;6.80;99.90;;;;;;10432778;28;20525;-81
2023/12/29 14:49:58;;;;;;;18.47;7.90;;;6.80;99.90;;;;;;10432549;28;20393;-78
2023/12/29 14:55:20;;;;;;;16.93;5.77;;;6.80;99.90;;;;;;10445342;28;20249;-81
2023/12/29 15:00:46;;;;;;;18.73;6.23;;;6.80;99.90;;;;;;10423939;28;20218;-79
2023/12/29 15:06:07;;;;;;;19.97;7.43;;;6.80;99.90;;;;;;10417421;28;20203;-78
2023/12/29 15:11:29;;;;;;;20.60;7.97;;;6.80;99.90;;;;;;10425627;28;20233;-80
2023/12/29 15:16:50;;;;;;;10.43;4.77;;;6.80;99.90;;;;;;10411657;28;20243;-80
2023/12/29 15:22:12;;;;;;;17.60;8.20;;;6.80;99.90;;;;;;10428908;28;20206;-79
2023/12/29 15:27:33;;;;;;;26.33;10.27;;;6.80;99.90;;;;;;10410231;28;20286;-81
2023/12/29 15:32:54;;;;;;;16.77;9.17;;;6.80;99.90;;;;;;10452507;28;20670;-82
2023/12/29 15:38:16;;;;;;;15.33;6.27;;;6.80;99.90;;;;;;10452057;28;20221;-81
2023/12/29 15:43:37;;;;;;;16.53;5.27;;;6.90;70.50;;;;;;10441173;28;20207;-79
2023/12/29 15:49:01;;;;;;;7.43;4.50;;;6.90;1.00;;;;;;10433833;28;20199;-80
2023/12/29 15:54:22;;;;;;;11.67;6.00;;;6.90;1.00;;;;;;10438536;28;20242;-80
2023/12/29 15:59:44;;;;;;;14.57;7.00;;;6.90;1.00;;;;;;10440628;28;20207;-81
2023/12/29 16:05:06;;;;;;;16.33;8.50;;;7.00;99.90;;;;;;10437956;28;20227;-81
2023/12/29 16:10:28;;;;;;;6.20;3.30;;;7.10;99.90;;;;;;10426396;28;20226;-82
2023/12/29 16:15:49;;;;;;;7.60;3.37;;;7.10;1.00;;;;;;10435528;28;20253;-84
2023/12/29 16:21:12;;;;;;;6.03;3.20;;;6.90;1.00;;;;;;10399664;28;20200;-82
2023/12/29 16:26:33;;;;;;;6.63;3.80;;;6.90;99.90;;;;;;10426589;28;20291;-82
2023/12/29 16:31:55;;;;;;;12.13;5.50;;;6.70;1.00;;;;;;10404958;28;20212;-83
2023/12/29 16:37:16;;;;;;;13.43;5.67;;;6.60;1.00;;;;;;10410335;28;20219;-81
2023/12/29 16:42:37;;;;;;;22.83;5.70;;;6.50;69.10;;;;;;10397914;28;20195;-83
2023/12/29 16:48:01;;;;;;;10.50;4.80;;;6.40;68.90;;;;;;10404808;28;20202;-81
2023/12/29 16:53:23;;;;;;;12.80;5.57;;;6.30;99.90;;;;;;10425623;28;20234;-82
2023/12/29 16:58:44;;;;;;;20.87;10.73;;;6.40;99.70;;;;;;10439717;28;20223;-82
2023/12/29 17:04:05;;;;;;;13.83;7.07;;;6.30;99.90;;;;;;10427139;28;20206;-83
2023/12/29 17:09:27;;;;;;;15.73;5.50;;;6.20;99.90;;;;;;10413982;28;20241;-81
2023/12/29 17:14:48;;;;;;;10.17;3.20;;;6.20;99.90;;;;;;10412304;28;20237;-82
2023/12/29 17:20:10;;;;;;;6.63;3.17;;;6.30;1.00;;;;;;10384160;28;20330;-81
2023/12/29 17:25:31;;;;;;;5.53;3.10;;;6.40;1.00;;;;;;10387006;28;20241;-81
2023/12/29 17:30:55;;;;;;;15.27;5.80;;;6.50;45.90;;;;;;10421450;28;20206;-81
2023/12/29 17:36:16;;;;;;;11.40;4.43;;;6.50;99.90;;;;;;10417726;28;20535;-81
2023/12/29 17:41:38;;;;;;;13.13;4.60;;;6.50;1.00;;;;;;10438308;28;20197;-81
2023/12/29 17:46:59;;;;;;;11.40;3.37;;;6.50;1.00;;;;;;10424238;28;20233;-82
2023/12/29 17:52:20;;;;;;;14.03;5.77;;;6.50;99.90;;;;;;10423758;28;20281;-83
2023/12/29 17:57:42;;;;;;;15.20;4.87;;;6.30;99.90;;;;;;10423334;28;20226;-82
2023/12/29 18:03:05;;;;;;;10.50;3.40;;;6.30;85.20;;;;;;10435381;28;20210;-82
2023/12/29 18:08:26;;;;;;;10.43;3.40;;;6.20;1.00;;;;;;10437044;28;20196;-82
2023/12/29 18:13:47;;;;;;;13.57;4.43;;;6.10;1.00;;;;;;10436879;28;20201;-81
2023/12/29 18:19:09;;;;;;;12.87;6.80;;;6.00;1.00;;;;;;10436941;28;20238;-82
2023/12/29 18:24:31;;;;;;;15.33;4.97;;;5.90;99.90;;;;;;10422605;28;20203;-81
2023/12/29 18:29:52;;;;;;;9.87;3.50;;;6.00;21.20;;;;;;10408560;28;20210;-81
2023/12/29 18:35:14;;;;;;;10.17;3.37;;;6.00;1.00;;;;;;10404601;28;20207;-82
2023/12/29 18:40:35;;;;;;;37.47;9.37;;;6.00;1.00;;;;;;10436419;28;20213;-83
2023/12/29 18:45:56;;;;;;;11.37;4.00;;;6.10;1.00;;;;;;10422071;28;20222;-84
2023/12/29 18:51:17;;;;;;;17.37;5.03;;;6.10;18.20;;;;;;10408113;28;20401;-82
2023/12/29 18:56:39;;;;;;;11.37;3.60;;;6.10;99.90;;;;;;10436772;28;20234;-83
2023/12/29 19:02:00;;;;;;;34.77;8.20;;;6.10;99.90;;;;;;10427746;28;20234;-83
2023/12/29 19:07:22;;;;;;;11.43;4.50;;;6.10;99.90;;;;;;10396522;28;20222;-82
2023/12/29 19:12:46;;;;;;;10.63;4.43;;;6.00;99.90;;;;;;10406073;28;20222;-84
2023/12/29 19:18:08;;;;;;;15.73;7.47;;;6.00;1.00;;;;;;10391609;28;20306;-83
2023/12/29 19:23:29;;;;;;;40.20;14.50;;;5.80;99.90;;;;;;10403101;28;20192;-83
2023/12/29 19:28:52;;;;;;;48.57;16.43;;;5.70;99.90;;;;;;10405157;28;20202;-83
2023/12/29 19:34:13;;;;;;;33.37;13.03;;;5.70;99.90;;;;;;10424375;28;20254;-82
2023/12/29 19:39:34;;;;;;;25.00;11.43;;;5.60;99.90;;;;;;10401234;28;20306;-81
2023/12/29 19:44:56;;;;;;;29.77;10.07;;;5.70;99.90;;;;;;10402351;28;20210;-82
2023/12/29 19:50:22;;;;;;;9.87;5.93;;;5.50;1.00;;;;;;10401739;28;20206;-83
2023/12/29 19:55:44;;;;;;;12.77;5.17;;;5.50;1.00;;;;;;10402879;28;20305;-82
2023/12/29 20:01:07;;;;;;;8.43;4.43;;;5.50;1.00;;;;;;10406336;28;20211;-83
2023/12/29 20:06:28;;;;;;;12.47;6.27;;;5.50;99.90;;;;;;10431251;28;20229;-83
2023/12/29 20:11:49;;;;;;;14.30;6.50;;;5.50;1.00;;;;;;10459541;28;20389;-83
2023/12/29 20:17:10;;;;;;;7.97;3.60;;;5.50;99.90;;;;;;10441709;28;20245;-84
2023/12/29 20:22:31;;;;;;;12.83;5.60;;;5.40;1.00;;;;;;10427069;28;20213;-83
2023/12/29 20:27:53;;;;;;;11.13;5.30;;;5.30;1.00;;;;;;10427567;28;20253;-84
2023/12/29 20:33:14;;;;;;;16.63;5.67;;;5.40;1.00;;;;;;10423381;28;20202;-82
2023/12/29 20:38:36;;;;;;;11.37;4.90;;;5.30;1.00;;;;;;10423877;28;20254;-82
2023/12/29 20:43:57;;;;;;;15.93;6.27;;;5.30;99.90;;;;;;10426808;28;20380;-81
2023/12/29 20:49:19;;;;;;;15.77;6.43;;;5.30;1.00;;;;;;10426507;28;20203;-81
2023/12/29 20:54:40;;;;;;;15.07;6.17;;;5.30;1.00;;;;;;10440222;28;20575;-81
2023/12/29 21:00:02;;;;;;;12.37;5.77;;;5.30;1.00;;;;;;10425682;28;20530;-84
2023/12/29 21:05:23;;;;;;;17.07;5.03;;;5.20;1.00;;;;;;10387061;28;20249;-83
2023/12/29 21:10:46;;;;;;;9.33;4.50;;;5.20;1.00;;;;;;10398815;28;20223;-81
2023/12/29 21:16:16;;;;;;;8.47;4.90;;;5.20;1.00;;;;;;10384178;28;20258;-84
2023/12/29 21:21:38;;;;;;;11.83;4.70;;;5.20;1.00;;;;;;10384315;28;20515;-81
2023/12/29 21:26:59;;;;;;;16.83;6.93;;;5.20;1.00;;;;;;10415164;28;20233;-81
2023/12/29 21:32:21;;;;;;;12.80;5.50;;;5.30;1.00;;;;;;10423330;28;20208;-81
2023/12/29 21:37:42;;;;;;;10.23;4.47;;;5.30;1.00;;;;;;10409972;28;20225;-80
2023/12/29 21:43:03;;;;;;;8.90;3.97;;;5.40;1.00;;;;;;10424213;28;20209;-82
2023/12/29 21:48:24;;;;;;;9.13;3.70;;;5.40;1.00;;;;;;10410096;28;20210;-81
2023/12/29 21:53:46;;;;;;;10.20;3.90;;;5.50;1.00;;;;;;10437662;28;20253;-81
2023/12/29 21:59:09;;;;;;;10.13;4.77;;;5.50;1.00;;;;;;10437205;28;20392;-81
2023/12/29 22:04:30;;;;;;;14.37;4.83;;;5.50;1.00;;;;;;10409118;28;20225;-81
2023/12/29 22:09:52;;;;;;;11.90;5.13;;;5.50;1.00;;;;;;10409791;28;20217;-82
2023/12/29 22:15:13;;;;;;;13.07;5.57;;;5.40;1.00;;;;;;10437074;28;20196;-81
2023/12/29 22:20:34;;;;;;;10.67;3.70;;;5.40;1.00;;;;;;10436864;28;20434;-81
2023/12/29 22:25:57;;;;;;;7.67;3.33;;;5.40;41.40;;;;;;10422834;28;20260;-80
2023/12/29 22:31:19;;;;;;;12.13;4.20;;;5.50;34.20;;;;;;10380442;28;20235;-81
2023/12/29 22:36:41;;;;;;;7.33;2.93;;;5.50;64.10;;;;;;10417192;28;20237;-81
2023/12/29 22:42:02;;;;;;;8.17;3.20;;;5.60;80.20;;;;;;10422226;28;20395;-81
2023/12/29 22:47:24;;;;;;;5.77;3.77;;;5.70;28.80;;;;;;10435749;28;20199;-82
2023/12/29 22:52:45;;;;;;;10.63;3.17;;;5.60;59.20;;;;;;10421953;28;20226;-82
2023/12/29 22:58:09;;;;;;;6.63;3.10;;;5.70;48.50;;;;;;10419946;28;20540;-83
2023/12/29 23:03:30;;;;;;;9.17;3.57;;;5.70;30.10;;;;;;10408613;28;20229;-81
2023/12/29 23:08:51;;;;;;;7.57;3.17;;;5.60;34.40;;;;;;10380777;28;20461;-82
2023/12/29 23:14:13;;;;;;;8.73;3.80;;;5.70;17.10;;;;;;10426324;28;20200;-83
2023/12/29 23:19:35;;;;;;;6.93;4.00;;;5.70;1.00;;;;;;10394320;28;20255;-84
2023/12/29 23:24:56;;;;;;;5.93;2.20;;;5.70;1.00;;;;;;10394331;28;20196;-82
2023/12/29 23:30:19;;;;;;;7.13;2.87;;;5.70;1.00;;;;;;10386661;28;20209;-81
2023/12/29 23:35:40;;;;;;;3.27;1.80;;;5.80;1.00;;;;;;10393660;28;20192;-81
2023/12/29 23:41:02;;;;;;;7.83;2.37;;;5.90;1.00;;;;;;10407097;28;20205;-81
2023/12/29 23:46:23;;;;;;;4.23;2.13;;;5.90;1.00;;;;;;10421100;28;20199;-82
2023/12/29 23:51:45;;;;;;;3.13;2.10;;;5.90;1.00;;;;;;10434571;28;20600;-81
2023/12/29 23:57:06;;;;;;;5.27;2.40;;;5.90;1.00;;;;;;10408003;28;20249;-84
